Aidenried, Germany

09:41 AM CEST die 23o April, anno 2018 (GMT +0200)
Graf-Berchtold-Straße | | Change Station

Elev 1811 ft 47.96 °N, 11.10 °E | Updated 2 minutes ago

Partialiter Nubila
Partialiter Nubila
67.1 °F
Feels Like 67.1 °F
N
0.6
Ventus Variabilis Ventus from Auster
Gusts 1.9 mph

Hodie
High -- | Low -- °F
--% Chance of Precip.
Yesterday
High -- | Low -- °F
Precip. -- in
Pressio 30.04 in
Visibilitas -9999.0 milia passuum
Clouds
Frigus in quo Ros apparet 52 °F
Umor 58%
Rainfall 0.00 in
Snow Depth Not available.
6:11 AM 8:16 PM
First Quarter, 55% visible
METAR EDMO 230720Z 22008KT CAVOK 17/09 Q1017
Pressio 30.04 in
Visibilitas -9999.0 milia passuum
Clouds
Frigus in quo Ros apparet 52 °F
Umor 58%
Rainfall 0.00 in
Snow Depth Not available.
6:11 AM 8:16 PM
First Quarter, 55% visible
METAR EDMO 230720Z 22008KT CAVOK 17/09 Q1017

Get Severe Weather Alerts

Thanks for signing up!

Be on the lookout for a verification email in your inbox.

You'll start receiving the daily forecast at 6 AM.

×

10-Day Weather Forecast

×

Almanac

Astronomy

Apr. 23, 2018 Rise Set
Actual Time
Civil Twilight
Nautical Twilight
Astronomical Twilight
Moon
Length Of Visible Light
Length of Day
Tomorrow will be .
, % of the Moon is Illuminated

Today's Extremes

Country Highs Country Lows

Community

WunderPhotos

Category 6

Welcome to Category 6. This is the collective home for Weather Underground's featured writeups by Dr. Jeff Masters (right), Bob Henson (left), Chris Burt, and other regular contributors.

Nearby

Air Quality

  Air Quality AQ Index Pollutant
Not available.

Snow Depth

Station Depth Elevation

Earthquake Activity

City Distance Mag. Time & Date
Minimum magnitude displayed is 2.5.

Coastal Water Temperatures

Locus Calor

Stations

Nearby Weather Stations

Station Location Temp Frigus Venti Frigus in quo Ros apparet Umor Ventus Precip. Elev Renovata Type